Time;durP1;ratioP1;P1;durP2;ratioP2;P2;SDS_P1;SDS_P2;PMS_P1;PMS_P2;Temp;Humidity;BMP_temperature;BMP_pressure;BME280_temperature;BME280_humidity;BME280_pressure;Samples;Min_cycle;Max_cycle;Signal;HPM_P1;HPM_P2
2022/10/09 00:00:37;;;;;;;6.05;2.60;;;;;;;8.78;85.73;101130.78;5053755;28;20032;-77
2022/10/09 00:03:03;;;;;;;5.18;1.80;;;;;;;8.71;86.43;101134.66;5052347;28;20397;-77
2022/10/09 00:05:29;;;;;;;9.35;2.38;;;;;;;8.51;86.60;101129.56;5054278;28;20029;-78
2022/10/09 00:07:54;;;;;;;4.93;2.05;;;;;;;8.40;87.36;101128.13;5052339;28;20393;-78
2022/10/09 00:10:20;;;;;;;8.43;1.80;;;;;;;8.36;87.22;101133.31;5052450;28;20033;-77
2022/10/09 00:12:46;;;;;;;3.75;1.73;;;;;;;8.01;88.92;101142.75;5053889;28;20037;-77
2022/10/09 00:15:11;;;;;;;4.13;1.20;;;;;;;7.89;89.71;101138.84;5053681;28;20021;-77
2022/10/09 00:17:36;;;;;;;5.63;1.50;;;;;;;7.81;90.53;101143.84;5053676;28;20021;-77
2022/10/09 00:20:03;;;;;;;4.45;1.58;;;;;;;8.25;88.32;101141.91;5052409;28;20302;-79
2022/10/09 00:22:28;;;;;;;;;;;;;;;8.23;88.30;101144.06;5052624;28;20481;-79
2022/10/09 00:24:53;;;;;;;5.33;1.60;;;;;;;8.00;89.02;101141.16;5052997;28;19913;-79
2022/10/09 00:27:21;;;;;;;5.33;1.47;;;;;;;7.75;90.68;101149.63;5053200;28;20284;-79
2022/10/09 00:29:46;;;;;;;4.55;1.25;;;;;;;7.58;91.67;101149.31;5053353;28;20267;-79
2022/10/09 00:32:12;;;;;;;5.27;1.43;;;;;;;7.55;91.95;101146.03;5052918;28;20534;-78
2022/10/09 00:34:37;;;;;;;5.05;1.55;;;;;;;7.52;92.46;101145.81;5053386;28;20056;-78
2022/10/09 00:37:03;;;;;;;6.70;1.87;;;;;;;7.54;92.52;101141.72;5053528;28;20028;-79
2022/10/09 00:39:28;;;;;;;5.43;1.27;;;;;;;7.58;92.34;101144.69;5035065;28;20033;-79
2022/10/09 00:41:54;;;;;;;4.05;1.45;;;;;;;7.78;91.78;101140.91;5053488;28;20778;-79
2022/10/09 00:44:59;;;;;;;5.03;1.60;;;;;;;8.15;89.79;101134.69;5051512;28;20074;-78
2022/10/09 00:47:40;;;;;;;6.05;2.00;;;;;;;8.38;87.87;101130.31;5053071;28;20029;-78
2022/10/09 00:50:11;;;;;;;8.75;1.55;;;;;;;8.33;88.19;101135.78;5053011;28;20397;-78
2022/10/09 00:52:37;;;;;;;4.90;1.85;;;;;;;8.20;88.00;101131.09;5052949;28;20035;-78
2022/10/09 00:55:03;;;;;;;7.47;1.70;;;;;;;8.04;88.48;101141.38;5050718;28;20040;-78
2022/10/09 00:57:31;;;;;;;4.00;1.48;;;;;;;7.95;88.76;101148.56;5051657;28;20278;-78
2022/10/09 01:00:00;;;;;;;4.35;1.50;;;;;;;7.73;89.14;101141.00;5052945;28;20029;-78
2022/10/09 01:02:26;;;;;;;5.05;1.40;;;;;;;7.37;90.78;101138.69;5053601;28;20392;-77
2022/10/09 01:04:51;;;;;;;4.57;2.00;;;;;;;7.18;91.61;101144.03;5052949;28;20103;-76
2022/10/09 01:07:26;;;;;;;4.67;1.73;;;;;;;7.11;92.94;101150.88;5051285;28;20028;-77
2022/10/09 01:10:06;;;;;;;4.53;2.22;;;;;;;7.14;92.81;101147.59;5052687;28;20029;-77
2022/10/09 01:13:07;;;;;;;6.28;1.73;;;;;;;7.17;92.58;101149.75;5051061;28;20028;-77
2022/10/09 01:15:55;;;;;;;7.70;1.95;;;;;;;7.10;92.36;101139.25;5052698;28;20047;-77
2022/10/09 01:18:24;;;;;;;6.63;1.90;;;;;;;6.93;92.77;101136.97;5052544;28;20021;-77
2022/10/09 01:21:11;;;;;;;4.55;1.88;;;;;;;7.00;93.39;101142.03;5052587;28;20032;-77
2022/10/09 01:24:14;;;;;;;4.68;1.92;;;;;;;7.12;92.03;101142.47;5052380;28;20039;-76
2022/10/09 01:27:09;;;;;;;5.85;1.92;;;;;;;7.02;92.21;101134.44;5052245;28;20031;-77
2022/10/09 01:29:45;;;;;;;7.85;2.35;;;;;;;6.78;92.81;101137.13;5052254;28;20457;-77
2022/10/09 01:32:15;;;;;;;7.00;2.33;;;;;;;6.55;94.00;101130.56;5052302;28;20028;-77
2022/10/09 01:34:42;;;;;;;8.90;2.10;;;;;;;6.42;94.66;101135.78;5050576;28;20032;-76
2022/10/09 01:37:11;;;;;;;5.78;2.15;;;;;;;6.27;95.31;101125.88;5051219;28;20055;-77
2022/10/09 01:39:37;;;;;;;7.55;2.05;;;;;;;6.23;95.99;101124.84;5051801;28;20033;-76
2022/10/09 01:42:04;;;;;;;4.50;1.63;;;;;;;6.27;96.08;101124.00;5051923;28;20429;-77
2022/10/09 01:44:31;;;;;;;6.90;2.05;;;;;;;6.38;95.52;101121.19;5050688;28;20032;-76
2022/10/09 01:46:58;;;;;;;5.28;1.65;;;;;;;6.33;95.76;101125.56;5052136;28;20549;-77
2022/10/09 01:49:26;;;;;;;4.95;1.70;;;;;;;6.27;95.10;101131.28;5052145;28;20494;-77
2022/10/09 01:51:59;;;;;;;5.85;2.00;;;;;;;6.17;95.56;101120.53;5052332;28;20021;-76
2022/10/09 01:54:37;;;;;;;8.05;2.20;;;;;;;6.11;96.36;101117.06;5051973;28;20040;-77
2022/10/09 01:57:05;;;;;;;6.28;1.95;;;;;;;6.13;96.49;101116.78;5052325;28;20104;-76
2022/10/09 01:59:35;;;;;;;7.55;2.20;;;;;;;6.10;96.65;101112.75;5052018;28;20120;-77
2022/10/09 02:02:00;;;;;;;5.25;1.90;;;;;;;6.11;96.93;101111.66;5052425;28;20021;-77
2022/10/09 02:04:28;;;;;;;10.90;2.63;;;;;;;6.24;96.80;101107.53;5052237;28;20055;-77
2022/10/09 02:06:54;;;;;;;7.43;2.45;;;;;;;6.41;96.34;101101.72;5033959;28;20101;-76
2022/10/09 02:09:22;;;;;;;4.22;1.80;;;;;;;6.47;96.09;101103.28;5033732;28;20436;-76
2022/10/09 02:11:54;;;;;;;5.22;2.20;;;;;;;6.43;95.66;101104.94;5051881;28;20147;-77
2022/10/09 02:14:19;;;;;;;6.90;2.17;;;;;;;6.38;95.78;101100.34;5051855;28;20043;-76
2022/10/09 02:16:49;;;;;;;5.80;2.20;;;;;;;6.46;95.22;101105.19;5052125;28;20509;-76
2022/10/09 02:19:26;;;;;;;4.90;1.77;;;;;;;6.31;94.88;101100.69;5051980;28;20037;-76
2022/10/09 02:21:59;;;;;;;5.82;1.73;;;;;;;6.17;95.88;101093.50;5052157;28;20032;-76
2022/10/09 02:24:26;;;;;;;5.63;2.08;;;;;;;6.06;96.38;101086.56;5051793;28;20443;-77
2022/10/09 02:26:53;;;;;;;5.00;1.90;;;;;;;6.03;97.22;101087.91;5051513;28;20103;-77
2022/10/09 02:29:19;;;;;;;7.55;1.95;;;;;;;6.00;97.02;101086.56;5051165;28;20079;-77
2022/10/09 02:31:46;;;;;;;4.40;1.70;;;;;;;6.03;96.81;101090.59;5051720;28;20083;-77
2022/10/09 02:34:16;;;;;;;4.35;1.58;;;;;;;5.96;97.27;101090.13;5051899;28;20040;-76
2022/10/09 02:36:41;;;;;;;6.40;2.35;;;;;;;5.88;97.46;101083.41;5051607;28;20112;-76
2022/10/09 02:39:07;;;;;;;6.65;1.70;;;;;;;5.91;97.42;101090.97;5033666;28;20111;-77
2022/10/09 02:41:33;;;;;;;4.63;1.90;;;;;;;5.95;97.19;101086.59;5033650;28;20119;-77
2022/10/09 02:43:58;;;;;;;7.38;2.85;;;;;;;6.00;97.23;101088.47;5051791;28;20424;-77
2022/10/09 02:46:24;;;;;;;7.70;2.22;;;;;;;5.99;97.14;101090.38;5051846;28;20049;-77
2022/10/09 02:48:50;;;;;;;6.70;1.88;;;;;;;5.95;97.02;101085.81;5053354;28;20025;-77
2022/10/09 02:51:15;;;;;;;8.73;2.33;;;;;;;5.95;96.98;101089.31;5054871;28;20029;-77
2022/10/09 02:53:41;;;;;;;10.07;2.60;;;;;;;6.06;97.06;101087.38;5037332;28;20078;-77
2022/10/09 02:56:06;;;;;;;5.80;2.40;;;;;;;6.06;96.97;101081.16;5055075;28;20049;-77
2022/10/09 02:58:33;;;;;;;4.97;1.98;;;;;;;6.17;96.27;101085.38;5054880;28;20032;-77
2022/10/09 03:00:59;;;;;;;5.78;2.13;;;;;;;6.12;96.09;101080.00;5055065;28;20408;-77
2022/10/09 03:03:25;;;;;;;5.82;2.70;;;;;;;6.06;97.24;101083.84;5055068;28;20044;-76
2022/10/09 03:06:01;;;;;;;5.25;2.30;;;;;;;6.27;96.40;101077.19;5055436;28;20130;-76
2022/10/09 03:08:27;;;;;;;5.63;2.33;;;;;;;6.32;96.56;101085.28;5037177;28;20025;-75
2022/10/09 03:10:52;;;;;;;4.88;2.03;;;;;;;6.30;96.34;101085.56;5055193;28;20036;-75
2022/10/09 03:13:18;;;;;;;5.57;2.05;;;;;;;6.50;96.37;101086.47;5054942;28;20028;-74
2022/10/09 03:15:43;;;;;;;7.07;2.60;;;;;;;6.56;95.91;101079.94;5036570;28;20396;-75
2022/10/09 03:18:08;;;;;;;4.90;2.37;;;;;;;6.37;96.05;101079.81;5054708;28;20484;-76
2022/10/09 03:20:33;;;;;;;11.97;2.33;;;;;;;6.50;95.85;101081.88;5054603;28;20053;-76
2022/10/09 03:23:00;;;;;;;6.30;1.87;;;;;;;6.46;95.42;101077.31;5054966;28;20744;-75
2022/10/09 03:25:26;;;;;;;5.00;1.90;;;;;;;6.33;95.48;101076.88;5054977;28;20025;-75
2022/10/09 03:27:51;;;;;;;6.83;2.23;;;;;;;6.23;95.98;101076.16;5054176;28;20031;-76
2022/10/09 03:30:16;;;;;;;6.63;2.00;;;;;;;6.12;96.45;101075.41;5054790;28;20060;-76
2022/10/09 03:32:41;;;;;;;6.40;2.30;;;;;;;6.10;96.37;101074.09;5054532;28;20422;-75
2022/10/09 03:35:08;;;;;;;4.93;2.10;;;;;;;6.10;96.48;101064.06;5054503;28;20385;-76
2022/10/09 03:37:33;;;;;;;6.32;2.03;;;;;;;6.14;96.35;101075.94;5054396;28;20024;-75
2022/10/09 03:39:58;;;;;;;6.32;2.17;;;;;;;6.18;96.55;101076.97;5054478;28;20032;-75
2022/10/09 03:42:24;;;;;;;5.90;2.07;;;;;;;6.17;96.84;101074.56;5019931;28;20066;-75
2022/10/09 03:44:49;;;;;;;11.80;2.63;;;;;;;6.20;96.96;101071.28;5019879;28;20025;-75
2022/10/09 03:47:15;;;;;;;4.70;1.92;;;;;;;6.17;96.66;101071.84;5054210;28;20029;-76
2022/10/09 03:49:41;;;;;;;5.45;2.10;;;;;;;6.14;96.63;101077.84;5036293;28;20033;-75
2022/10/09 03:52:06;;;;;;;13.43;2.67;;;;;;;6.20;95.60;101068.59;5054409;28;20036;-76
2022/10/09 03:54:32;;;;;;;5.67;2.20;;;;;;;6.17;94.53;101072.66;5035995;28;20025;-75
2022/10/09 03:56:57;;;;;;;5.78;1.52;;;;;;;5.86;95.41;101076.63;5036128;28;20278;-76
2022/10/09 03:59:23;;;;;;;6.05;2.10;;;;;;;5.87;95.30;101081.75;5035452;28;20044;-76
2022/10/09 04:01:48;;;;;;;9.65;2.38;;;;;;;5.59;95.86;101071.66;5035723;28;20516;-76
2022/10/09 04:04:14;;;;;;;5.60;2.47;;;;;;;5.51;96.83;101073.03;5054000;28;20033;-76
2022/10/09 04:06:39;;;;;;;5.22;1.63;;;;;;;5.56;97.20;101078.44;5053866;28;20819;-76
2022/10/09 04:09:05;;;;;;;5.00;2.08;;;;;;;5.54;96.88;101072.47;5053528;28;20052;-75
2022/10/09 04:11:30;;;;;;;7.72;1.95;;;;;;;5.49;97.07;101066.28;5036119;28;20033;-75
2022/10/09 04:13:55;;;;;;;6.07;2.20;;;;;;;5.36;97.47;101073.91;5035879;28;20480;-75
2022/10/09 04:16:21;;;;;;;4.83;2.37;;;;;;;5.33;98.18;101073.66;5035616;28;20083;-76
2022/10/09 04:18:46;;;;;;;6.40;2.50;;;;;;;5.31;98.20;101075.81;5053523;28;20491;-76
2022/10/09 04:21:13;;;;;;;4.97;2.10;;;;;;;5.21;98.51;101070.47;5053815;28;20255;-76
2022/10/09 04:23:39;;;;;;;6.18;2.28;;;;;;;5.22;98.78;101080.19;5053451;28;20525;-77
2022/10/09 04:26:04;;;;;;;6.32;2.22;;;;;;;5.23;98.90;101076.41;5053043;28;20115;-76
2022/10/09 04:28:30;;;;;;;6.10;2.08;;;;;;;5.21;98.95;101073.19;5053395;28;20436;-78
2022/10/09 04:30:57;;;;;;;5.32;2.08;;;;;;;5.27;98.93;101072.06;5053419;28;20024;-78
2022/10/09 04:33:23;;;;;;;5.45;2.65;;;;;;;5.35;98.88;101075.00;5053517;28;20033;-79
2022/10/09 04:35:51;;;;;;;4.78;1.92;;;;;;;5.26;98.70;101063.16;5035494;28;20025;-79
2022/10/09 04:38:17;;;;;;;10.77;3.03;;;;;;;5.49;98.65;101063.59;5053298;28;20471;-78
2022/10/09 04:40:42;;;;;;;10.63;2.42;;;;;;;5.50;97.70;101060.59;5053233;28;20121;-76
2022/10/09 04:43:07;;;;;;;6.32;2.25;;;;;;;5.52;97.80;101061.13;5035195;28;20029;-76
2022/10/09 04:45:33;;;;;;;6.70;1.97;;;;;;;5.44;97.65;101061.72;5035011;28;20496;-76
2022/10/09 04:47:58;;;;;;;7.03;2.22;;;;;;;5.56;96.77;101054.13;5052721;28;20024;-76
2022/10/09 04:50:24;;;;;;;4.80;1.88;;;;;;;5.59;98.32;101050.84;5052838;28;20040;-76
2022/10/09 04:52:49;;;;;;;5.10;2.30;;;;;;;5.61;98.07;101059.47;5052748;28;20037;-76
2022/10/09 04:55:16;;;;;;;5.67;2.13;;;;;;;5.68;97.12;101057.28;5038852;28;20052;-76
2022/10/09 04:57:41;;;;;;;6.72;2.15;;;;;;;5.73;97.83;101054.56;5053054;28;20649;-76
2022/10/09 05:00:07;;;;;;;5.27;1.90;;;;;;;5.70;97.04;101057.78;5052776;28;20024;-76
2022/10/09 05:02:32;;;;;;;;;;;;;;;5.73;96.83;101065.38;5052009;28;20029;-76
2022/10/09 05:04:58;;;;;;;7.47;2.00;;;;;;;5.59;97.14;101058.16;5052660;28;19913;-77
2022/10/09 05:07:23;;;;;;;8.20;2.17;;;;;;;5.56;97.16;101051.41;5052666;28;20782;-78
2022/10/09 05:09:50;;;;;;;6.78;2.65;;;;;;;5.42;98.39;101051.22;5052549;28;20054;-78
2022/10/09 05:12:16;;;;;;;4.57;2.05;;;;;;;5.26;99.27;101057.75;5052399;28;20090;-77
2022/10/09 05:14:41;;;;;;;4.97;2.20;;;;;;;5.29;100.00;101051.00;5052721;28;20024;-78
2022/10/09 05:17:07;;;;;;;6.38;2.28;;;;;;;5.33;99.85;101046.66;5051219;28;20366;-78
2022/10/09 05:19:32;;;;;;;4.97;2.13;;;;;;;5.44;99.06;101048.22;5052563;28;20473;-77
2022/10/09 05:21:59;;;;;;;12.07;2.88;;;;;;;5.32;99.03;101040.44;5051139;28;20021;-76
2022/10/09 05:24:25;;;;;;;4.45;1.95;;;;;;;5.37;98.73;101048.50;5052085;28;20035;-78
2022/10/09 05:26:50;;;;;;;5.88;2.35;;;;;;;5.26;99.05;101048.84;5052652;28;20029;-77
2022/10/09 05:29:15;;;;;;;7.27;2.47;;;;;;;5.40;100.00;101045.28;5051854;28;20032;-78
2022/10/09 05:31:42;;;;;;;6.93;2.57;;;;;;;5.38;99.98;101043.94;5052349;28;20272;-78
2022/10/09 05:34:08;;;;;;;4.47;2.20;;;;;;;5.40;99.95;101050.69;5052218;28;20104;-78
2022/10/09 05:36:33;;;;;;;7.03;2.70;;;;;;;5.45;99.63;101049.84;5050647;28;20056;-77
2022/10/09 05:39:00;;;;;;;9.13;3.17;;;;;;;5.47;99.59;101053.06;5052257;28;20036;-77
2022/10/09 05:41:27;;;;;;;5.70;2.47;;;;;;;5.55;99.42;101054.41;5050634;28;20072;-78
2022/10/09 05:43:53;;;;;;;6.93;2.15;;;;;;;5.66;98.94;101054.03;5052050;28;20017;-77
2022/10/09 05:46:20;;;;;;;6.97;2.22;;;;;;;5.76;98.49;101060.50;5050797;28;20036;-77
2022/10/09 05:48:51;;;;;;;5.05;2.55;;;;;;;5.86;98.24;101057.72;5052042;28;20413;-77
2022/10/09 05:51:19;;;;;;;6.55;3.00;;;;;;;5.91;98.07;101046.91;5052531;28;20025;-77
2022/10/09 05:53:46;;;;;;;6.40;2.47;;;;;;;5.76;97.58;101049.69;5052388;28;20029;-78
2022/10/09 05:56:14;;;;;;;7.35;2.30;;;;;;;6.02;98.13;101048.44;5051791;28;20064;-77
2022/10/09 05:58:40;;;;;;;6.28;1.98;;;;;;;6.05;96.81;101047.91;5052583;28;20029;-78
2022/10/09 06:01:07;;;;;;;6.25;2.33;;;;;;;6.01;97.80;101047.63;5051819;28;20048;-78
2022/10/09 06:03:34;;;;;;;3.90;2.25;;;;;;;6.19;97.63;101048.03;5052041;28;20083;-79
2022/10/09 06:06:00;;;;;;;8.00;1.95;;;;;;;6.32;96.54;101042.00;5051838;28;20083;-78
2022/10/09 06:08:29;;;;;;;7.07;1.92;;;;;;;6.32;96.02;101045.50;5051821;28;20035;-76
2022/10/09 06:10:55;;;;;;;8.07;2.13;;;;;;;6.30;96.57;101046.88;5017568;28;20045;-77
2022/10/09 06:13:20;;;;;;;9.47;2.00;;;;;;;6.21;97.35;101049.38;5051841;28;20476;-76
2022/10/09 06:15:53;;;;;;;8.07;2.03;;;;;;;6.15;96.87;101037.00;5034060;28;20447;-76
2022/10/09 06:18:19;;;;;;;6.10;2.10;;;;;;;6.10;96.91;101047.84;5033946;28;20017;-76
2022/10/09 06:20:55;;;;;;;5.95;2.38;;;;;;;6.10;96.63;101053.25;5051877;28;20032;-76
2022/10/09 06:23:20;;;;;;;4.85;2.35;;;;;;;6.15;96.55;101058.63;5052816;28;20033;-77
2022/10/09 06:25:56;;;;;;;7.22;2.38;;;;;;;6.16;96.10;101054.03;5055658;28;20366;-77
2022/10/09 06:28:21;;;;;;;5.20;2.20;;;;;;;6.33;95.79;101059.81;5055594;28;20033;-76
2022/10/09 06:30:48;;;;;;;6.60;2.10;;;;;;;6.36;95.48;101056.56;5055481;28;20079;-76
2022/10/09 06:33:13;;;;;;;8.32;1.90;;;;;;;6.36;95.28;101061.16;5055462;28;20033;-76
2022/10/09 06:35:39;;;;;;;4.32;1.80;;;;;;;6.31;95.41;101065.53;5037636;28;20032;-76
2022/10/09 06:38:04;;;;;;;5.30;2.35;;;;;;;6.19;95.20;101070.47;5037659;28;20045;-76
2022/10/09 06:40:34;;;;;;;4.00;1.93;;;;;;;6.14;95.76;101062.41;5055168;28;20040;-74
2022/10/09 06:42:59;;;;;;;8.23;1.95;;;;;;;6.20;95.97;101055.88;5055201;28;20259;-74
2022/10/09 06:45:24;;;;;;;4.73;2.00;;;;;;;6.24;95.96;101062.34;5055184;28;20033;-74
2022/10/09 06:47:50;;;;;;;4.80;2.20;;;;;;;6.29;95.55;101054.19;5055228;28;20024;-75
2022/10/09 06:50:15;;;;;;;4.30;1.87;;;;;;;6.38;95.40;101056.25;5037244;28;20123;-74
2022/10/09 06:52:41;;;;;;;6.57;2.20;;;;;;;6.51;94.91;101061.84;5037317;28;20048;-75
2022/10/09 06:55:06;;;;;;;5.00;1.70;;;;;;;6.75;96.12;101061.91;5054874;28;20060;-74
2022/10/09 06:57:32;;;;;;;5.82;2.00;;;;;;;6.87;94.01;101054.16;5055111;28;20154;-75
2022/10/09 06:59:57;;;;;;;6.87;2.20;;;;;;;7.02;92.63;101055.09;5037016;28;20044;-75
2022/10/09 07:02:24;;;;;;;6.77;2.00;;;;;;;7.20;91.54;101057.88;5037062;28;20029;-74
2022/10/09 07:04:49;;;;;;;8.60;2.17;;;;;;;7.23;91.13;101059.22;5036718;28;20116;-74
2022/10/09 07:07:14;;;;;;;7.30;2.07;;;;;;;7.32;91.12;101052.03;5054938;28;20104;-74
2022/10/09 07:09:40;;;;;;;5.40;2.10;;;;;;;7.34;91.10;101057.97;5054864;28;20041;-74
2022/10/09 07:12:05;;;;;;;4.60;1.50;;;;;;;7.31;91.01;101052.34;5055256;28;20101;-75
2022/10/09 07:14:30;;;;;;;3.90;1.70;;;;;;;7.31;90.93;101060.47;5036844;28;20279;-74
2022/10/09 07:16:56;;;;;;;4.67;1.80;;;;;;;7.34;90.70;101062.59;5036648;28;20024;-75
2022/10/09 07:19:22;;;;;;;7.90;1.80;;;;;;;7.39;90.78;101066.06;5055058;28;20025;-74
2022/10/09 07:21:48;;;;;;;3.25;1.40;;;;;;;7.47;90.46;101062.69;5054713;28;20393;-74
2022/10/09 07:24:15;;;;;;;4.38;1.55;;;;;;;7.60;90.10;101055.75;5036667;28;20028;-75
2022/10/09 07:26:43;;;;;;;3.55;1.50;;;;;;;7.81;89.47;101061.69;5054531;28;20029;-74
2022/10/09 07:29:09;;;;;;;6.20;1.90;;;;;;;7.98;88.52;101059.28;5054467;28;20025;-74
2022/10/09 07:31:35;;;;;;;3.72;1.65;;;;;;;8.11;88.05;101050.41;5036530;28;20568;-74
2022/10/09 07:34:00;;;;;;;3.65;1.63;;;;;;;8.30;87.22;101057.69;5054504;28;20119;-74
2022/10/09 07:36:26;;;;;;;9.05;1.60;;;;;;;8.44;86.68;101058.59;5054312;28;20033;-74
2022/10/09 07:38:55;;;;;;;3.92;1.40;;;;;;;8.58;85.85;101064.06;5054101;28;20397;-74
2022/10/09 07:41:23;;;;;;;4.80;1.23;;;;;;;8.79;85.41;101065.28;5036719;28;20068;-75
2022/10/09 07:43:48;;;;;;;6.32;1.67;;;;;;;8.92;84.68;101058.28;5054695;28;20048;-75
2022/10/09 07:46:16;;;;;;;6.90;1.50;;;;;;;9.08;83.63;101062.31;5036160;28;20477;-75
2022/10/09 07:48:42;;;;;;;3.65;1.05;;;;;;;9.25;83.10;101057.09;5054028;28;20276;-75
2022/10/09 07:51:13;;;;;;;3.47;1.48;;;;;;;9.43;82.05;101058.06;5054269;28;20025;-77
2022/10/09 07:53:39;;;;;;;4.57;0.95;;;;;;;9.60;80.69;101052.00;5054218;28;20033;-75
2022/10/09 07:56:05;;;;;;;2.80;1.10;;;;;;;9.75;80.67;101048.16;5054045;28;20527;-75
2022/10/09 07:58:31;;;;;;;2.60;1.00;;;;;;;9.81;79.67;101046.91;5053937;28;20028;-77
2022/10/09 08:01:11;;;;;;;3.35;1.17;;;;;;;9.91;79.71;101046.69;5054059;28;20420;-77
2022/10/09 08:03:37;;;;;;;3.47;0.80;;;;;;;10.10;78.61;101049.25;5053907;28;20032;-75
2022/10/09 08:06:03;;;;;;;5.63;1.77;;;;;;;10.22;78.08;101041.31;5054007;28;20033;-76
2022/10/09 08:08:28;;;;;;;;;;;;;;;10.28;77.92;101042.84;5054109;28;20025;-77
2022/10/09 08:10:54;;;;;;;2.50;1.10;;;;;;;10.48;77.50;101050.47;5053954;28;20052;-77
2022/10/09 08:13:19;;;;;;;3.67;1.00;;;;;;;10.53;77.31;101042.19;5035819;28;20033;-77
2022/10/09 08:15:45;;;;;;;2.60;0.97;;;;;;;10.65;77.52;101043.53;5035848;28;20128;-78
2022/10/09 08:18:11;;;;;;;7.78;1.73;;;;;;;10.75;76.85;101043.25;5053505;28;20271;-77
2022/10/09 08:20:37;;;;;;;;;;;;;;;10.84;76.23;101047.63;5053975;28;20500;-78
2022/10/09 08:23:02;;;;;;;3.55;1.25;;;;;;;10.93;75.57;101035.97;5053798;28;19908;-78
2022/10/09 08:25:28;;;;;;;2.90;1.00;;;;;;;11.11;74.95;101045.81;5053457;28;20367;-77
2022/10/09 08:27:55;;;;;;;3.10;0.98;;;;;;;11.31;73.39;101039.78;5053243;28;20037;-77
2022/10/09 08:30:24;;;;;;;4.03;1.20;;;;;;;11.34;73.93;101043.78;5053852;28;20033;-78
2022/10/09 08:32:52;;;;;;;2.97;0.90;;;;;;;11.46;73.26;101041.28;5053501;28;20032;-76
2022/10/09 08:35:18;;;;;;;4.30;0.90;;;;;;;11.47;72.81;101048.31;5053396;28;20031;-77
2022/10/09 08:37:45;;;;;;;3.73;0.97;;;;;;;11.56;73.34;101046.41;5053418;28;20021;-78
2022/10/09 08:40:17;;;;;;;3.88;1.13;;;;;;;11.66;73.18;101043.38;5034802;28;20028;-78
2022/10/09 08:42:51;;;;;;;3.85;1.25;;;;;;;11.74;72.91;101045.28;5035199;28;20025;-78
2022/10/09 08:45:18;;;;;;;2.63;1.05;;;;;;;11.81;73.41;101046.78;5034886;28;20028;-79
2022/10/09 08:47:55;;;;;;;3.30;1.00;;;;;;;11.90;73.27;101034.75;5018201;28;20029;-78
2022/10/09 08:50:48;;;;;;;5.20;1.15;;;;;;;11.88;72.11;101036.19;5053050;28;20036;-78
2022/10/09 08:53:37;;;;;;;4.70;1.20;;;;;;;11.92;72.62;101031.69;5053186;28;20025;-78
2022/10/09 08:56:05;;;;;;;1.48;0.60;;;;;;;12.18;70.75;101018.84;5052608;28;20053;-78
2022/10/09 08:58:33;;;;;;;4.30;1.05;;;;;;;12.24;70.05;101023.00;5035075;28;20021;-78
2022/10/09 09:01:25;;;;;;;4.97;1.42;;;;;;;12.42;70.08;101017.50;5053252;28;20031;-79
2022/10/09 09:04:12;;;;;;;4.30;1.23;;;;;;;12.54;68.79;101015.72;5035198;28;20024;-78
2022/10/09 09:06:59;;;;;;;2.83;1.05;;;;;;;12.40;69.27;101004.16;5052986;28;20108;-79
2022/10/09 09:09:52;;;;;;;3.45;1.42;;;;;;;12.56;69.33;101004.44;5034690;28;20048;-78
2022/10/09 09:12:33;;;;;;;2.80;0.95;;;;;;;12.80;69.08;101004.69;5052743;28;20025;-78
2022/10/09 09:15:32;;;;;;;4.10;1.27;;;;;;;12.77;68.44;100999.91;5052973;28;20049;-78
2022/10/09 09:18:22;;;;;;;4.50;1.27;;;;;;;12.88;67.54;100998.38;5052777;28;20107;-79
2022/10/09 09:20:55;;;;;;;4.93;0.88;;;;;;;12.89;67.87;100999.97;5052785;28;20036;-78
2022/10/09 09:23:45;;;;;;;3.03;1.00;;;;;;;13.11;68.44;100996.19;5034301;28;20071;-79
2022/10/09 09:26:18;;;;;;;3.78;1.02;;;;;;;13.07;66.96;100995.22;5034679;28;20040;-78
2022/10/09 09:28:44;;;;;;;2.65;1.40;;;;;;;13.14;66.99;100983.78;5052236;28;20046;-78
2022/10/09 09:31:26;;;;;;;;;;;;;;;13.26;67.03;100983.88;5052868;28;20036;-79
2022/10/09 09:34:04;;;;;;;4.70;1.30;;;;;;;13.27;66.39;100981.94;5052600;28;19909;-77
2022/10/09 09:36:37;;;;;;;3.30;1.20;;;;;;;13.51;65.53;100982.13;5034541;28;20370;-79
2022/10/09 09:39:10;;;;;;;8.43;1.95;;;;;;;13.56;65.79;100973.72;5052241;28;20025;-78
2022/10/09 09:41:35;;;;;;;2.70;1.10;;;;;;;13.75;64.43;100970.50;5034458;28;20029;-79
2022/10/09 09:44:01;;;;;;;2.55;0.88;;;;;;;13.61;64.77;100959.03;5052114;28;20476;-78
2022/10/09 09:46:30;;;;;;;2.50;0.90;;;;;;;13.47;65.50;100971.06;5034216;28;20041;-79
2022/10/09 09:48:56;;;;;;;2.00;0.75;;;;;;;13.79;63.86;100965.97;5052272;28;20048;-79
2022/10/09 09:51:26;;;;;;;2.70;0.80;;;;;;;13.82;63.55;100966.09;5052304;28;20032;-78
2022/10/09 09:53:55;;;;;;;5.32;1.10;;;;;;;13.91;63.25;100963.25;5051920;28;20029;-78
2022/10/09 09:56:38;;;;;;;4.18;0.90;;;;;;;14.07;62.97;100964.22;5047005;28;20551;-79
2022/10/09 09:59:30;;;;;;;4.78;0.98;;;;;;;13.99;62.15;100947.91;5053311;28;20032;-79
2022/10/09 10:02:14;;;;;;;3.63;0.90;;;;;;;14.00;62.15;100953.03;5056140;28;20020;-78
2022/10/09 10:04:55;;;;;;;5.65;1.02;;;;;;;14.10;61.61;100949.88;5054921;28;20025;-78
2022/10/09 10:07:33;;;;;;;3.47;1.00;;;;;;;14.10;59.67;100938.91;5054720;28;20028;-78
2022/10/09 10:10:14;;;;;;;2.47;0.90;;;;;;;14.20;58.89;100939.63;5056064;28;20029;-78
2022/10/09 10:12:45;;;;;;;3.05;0.98;;;;;;;14.23;59.24;100931.53;5056036;28;20021;-78
2022/10/09 10:15:33;;;;;;;4.72;0.90;;;;;;;14.24;58.84;100929.59;5055722;28;20119;-79
2022/10/09 10:18:13;;;;;;;3.10;0.80;;;;;;;14.39;58.26;100923.44;5056207;28;20075;-78
2022/10/09 10:20:47;;;;;;;2.72;0.80;;;;;;;14.62;57.73;100924.66;5056242;28;20071;-80
2022/10/09 10:23:34;;;;;;;4.10;0.98;;;;;;;14.40;56.90;100919.56;5056058;28;20104;-78
2022/10/09 10:26:05;;;;;;;2.53;0.60;;;;;;;14.55;57.11;100931.84;5055785;28;20023;-78
2022/10/09 10:28:37;;;;;;;1.90;0.77;;;;;;;14.55;55.22;100920.88;5055636;28;20036;-79
2022/10/09 10:31:06;;;;;;;2.17;0.77;;;;;;;14.57;56.16;100922.13;5055940;28;20061;-77
2022/10/09 10:33:35;;;;;;;4.03;0.85;;;;;;;14.68;55.93;100919.75;5055765;28;20025;-79
2022/10/09 10:36:00;;;;;;;2.05;0.60;;;;;;;14.87;55.95;100922.69;5056165;28;20405;-80
2022/10/09 10:38:34;;;;;;;3.15;1.15;;;;;;;14.93;54.87;100917.78;5056103;28;20469;-80
2022/10/09 10:41:21;;;;;;;1.80;0.80;;;;;;;14.88;54.45;100909.78;5054277;28;20041;-79
2022/10/09 10:44:02;;;;;;;2.72;0.90;;;;;;;14.90;53.81;100910.25;5055964;28;20028;-80
2022/10/09 10:46:33;;;;;;;1.65;0.63;;;;;;;15.01;54.51;100906.69;5055703;28;20373;-77
2022/10/09 10:49:02;;;;;;;2.10;0.80;;;;;;;15.29;53.53;100887.56;5055536;28;20116;-79
2022/10/09 10:52:05;;;;;;;2.42;0.70;;;;;;;15.19;53.77;100896.25;5055507;28;20103;-78
2022/10/09 10:54:51;;;;;;;1.88;0.80;;;;;;;15.02;53.95;100896.53;5053754;28;20366;-78
2022/10/09 10:57:38;;;;;;;3.20;1.13;;;;;;;15.03;54.98;100884.41;5037230;28;20538;-80
2022/10/09 11:00:25;;;;;;;0.95;0.50;;;;;;;15.16;53.86;100883.25;5037383;28;20095;-79
2022/10/09 11:03:08;;;;;;;;;;;;;;;15.17;54.60;100881.28;5055807;28;20040;-79
2022/10/09 11:06:05;;;;;;;;;;;;;;;;;;;;;
2022/10/09 11:09:13;;;;;;;3.45;0.80;;;;;;;15.51;53.34;100860.72;5054862;28;20029;-79
2022/10/09 11:11:55;;;;;;;3.47;0.90;;;;;;;15.40;53.00;100859.59;5036194;28;20037;-80
2022/10/09 11:14:45;;;;;;;2.92;1.13;;;;;;;15.38;52.96;100853.66;5055086;28;20031;-78
2022/10/09 11:17:33;;;;;;;4.82;1.20;;;;;;;15.64;52.77;100846.63;5055246;28;20013;-79
2022/10/09 11:20:27;;;;;;;2.95;0.77;;;;;;;15.70;52.50;100849.09;5036800;28;20028;-79
2022/10/09 11:23:36;;;;;;;2.30;1.02;;;;;;;15.75;52.72;100835.91;5053486;28;20033;-79
2022/10/09 11:26:31;;;;;;;2.40;0.85;;;;;;;15.76;52.41;100839.44;5034595;28;20044;-80
2022/10/09 11:29:35;;;;;;;1.15;0.65;;;;;;;15.77;51.13;100833.59;5053927;28;20029;-78
2022/10/09 11:32:09;;;;;;;4.70;1.10;;;;;;;15.79;50.99;100831.31;5036440;28;20055;-80
2022/10/09 11:34:46;;;;;;;3.38;1.25;;;;;;;15.86;51.33;100815.03;5054238;28;20562;-79
2022/10/09 11:37:34;;;;;;;1.83;0.88;;;;;;;16.02;50.21;100822.47;5036624;28;20028;-79
2022/10/09 11:40:16;;;;;;;2.05;1.00;;;;;;;16.14;49.65;100812.19;5035227;28;20037;-78
2022/10/09 11:43:25;;;;;;;3.13;0.77;;;;;;;16.21;49.81;100819.81;5054533;28;20110;-79
2022/10/09 11:45:56;;;;;;;1.88;0.70;;;;;;;16.12;49.38;100805.44;5028610;28;20041;-79
2022/10/09 11:49:09;;;;;;;1.27;0.60;;;;;;;15.99;49.58;100807.50;5054309;28;20024;-85
2022/10/09 11:51:56;;;;;;;1.58;1.00;;;;;;;16.07;49.29;100805.72;4974239;28;20089;-94